PANC/ANC METAR and TAF weather

Enter ICAO airport designator
Station Type Date Time Source
PANC METAR 2020/01/29 02:53 UTC NOAA

PANC 290253Z 36012G17KT 10SM BKN055 OVC070 M12/M17 A2915 RMK AO2 SNB11E47 SLP875 P0000 60000 T11171172 58041


Station Type Date Time Source
PANC Decoded METAR 2020/01/29 02:53 UTC NOAA

TED STEVENS ANCHORAGE INTERNATIONAL , AK, United States (PANC) 61-10N 150-02W 48M
Jan 28, 2020 - 09:53 PM EST / 2020.01.29 0253 UTC
Wind: from the N (360 degrees) at 14 MPH (12 KT) gusting to 20 MPH (17 KT):0
Visibility: 10 mile(s):0
Sky conditions: overcast
Precipitation last hour: A trace
Temperature: 10.9 F (-11.7 C)
Windchill: -5 F (-21 C):2
Dew Point: 1.0 F (-17.2 C)
Relative Humidity: 63%
Pressure (altimeter): 29.15 in. Hg (987 hPa)
Pressure tendency: 0.12 inches (4.1 hPa) lower than three hours ago
ob: PANC 290253Z 36012G17KT 10SM BKN055 OVC070 M12/M17 A2915 RMK AO2 SNB11E47 SLP875 P0000 60000 T11171172 58041
cycle: 3

Station Type Date Time Source
PANC TAF 2020/01/28 22:40 UTC NOAA

TAF
AMD PANC 282138Z 2822/2924 VRB06KT P6SM SCT060 SCT100
FM290000 02008KT P6SM BKN100
FM290600 36015G23KT P6SM VCSH SCT060 BKN120

Example: see airport list